Time,TemperatureF,DewpointF,PressureIn,WindDirection,WindDirectionDegrees,WindSpeedMPH,WindSpeedGustMPH,Humidity,HourlyPrecipIn,Conditions,Clouds,dailyrainin,SoftwareType,DateUTC
2013-09-29 00:13:00,54.9,53.5,29.83,North,0,2.2,-999.0,95,-99.99,,,0.00,Acu-Link.com,2013-09-29 05:13:00,
2013-09-29 00:28:00,54.3,52.9,29.83,ESE,112,1.7,-999.0,95,-99.99,,,0.00,Acu-Link.com,2013-09-29 05:28:00,
2013-09-29 00:43:00,53.8,52.7,29.84,West,270,1.7,-999.0,96,-99.99,,,0.00,Acu-Link.com,2013-09-29 05:43:00,
2013-09-29 00:59:00,53.4,52.3,29.84,NE,45,0.0,-999.0,96,-99.99,,,0.00,Acu-Link.com,2013-09-29 05:59:00,
2013-09-29 01:14:00,53.1,52.3,29.85,East,90,1.7,-999.0,97,-99.99,,,0.00,Acu-Link.com,2013-09-29 06:14:00,
2013-09-29 01:29:00,52.9,52.1,29.85,NE,45,0.0,-999.0,97,-99.99,,,0.00,Acu-Link.com,2013-09-29 06:29:00,
2013-09-29 01:45:00,52.7,52.2,29.85,South,180,1.1,-999.0,98,-99.99,,,0.00,Acu-Link.com,2013-09-29 06:45:00,
2013-09-29 02:00:00,52.5,52.0,29.86,ENE,67,2.2,-999.0,98,-99.99,,,0.00,Acu-Link.com,2013-09-29 07:00:00,
2013-09-29 02:15:00,52.3,51.8,29.86,West,270,2.2,-999.0,98,-99.99,,,0.00,Acu-Link.com,2013-09-29 07:15:00,
2013-09-29 02:30:00,52.2,51.7,29.86,East,90,2.7,-999.0,98,-99.99,,,0.00,Acu-Link.com,2013-09-29 07:30:00,
2013-09-29 02:46:00,52.2,51.7,29.86,SE,135,0.0,-999.0,98,-99.99,,,0.00,Acu-Link.com,2013-09-29 07:46:00,
2013-09-29 03:01:00,51.8,51.3,29.87,West,270,2.2,-999.0,98,-99.99,,,0.00,Acu-Link.com,2013-09-29 08:01:00,
2013-09-29 03:16:00,51.8,51.3,29.87,SE,135,2.2,-999.0,98,-99.99,,,0.00,Acu-Link.com,2013-09-29 08:16:00,
2013-09-29 03:31:00,51.4,50.9,29.86,SSE,157,2.7,-999.0,98,-99.99,,,0.00,Acu-Link.com,2013-09-29 08:31:00,
2013-09-29 03:47:00,51.4,50.9,29.87,ESE,112,2.7,-999.0,98,-99.99,,,0.00,Acu-Link.com,2013-09-29 08:47:00,
2013-09-29 04:02:00,51.3,50.8,29.87,East,90,0.0,-999.0,98,-99.99,,,0.00,Acu-Link.com,2013-09-29 09:02:00,
2013-09-29 04:18:00,50.4,49.9,29.87,ENE,67,1.7,-999.0,98,-99.99,,,0.00,Acu-Link.com,2013-09-29 09:18:00,
2013-09-29 04:33:00,50.4,49.9,29.88,East,90,0.0,-999.0,98,-99.99,,,0.00,Acu-Link.com,2013-09-29 09:33:00,
2013-09-29 04:48:00,50.0,49.5,29.88,East,90,1.1,-999.0,98,-99.99,,,0.00,Acu-Link.com,2013-09-29 09:48:00,
2013-09-29 05:04:00,49.5,49.0,29.88,SW,225,0.0,-999.0,98,-99.99,,,0.00,Acu-Link.com,2013-09-29 10:04:00,
2013-09-29 05:19:00,49.3,48.8,29.88,ENE,67,0.0,-999.0,98,-99.99,,,0.00,Acu-Link.com,2013-09-29 10:19:00,
2013-09-29 05:35:00,48.6,48.1,29.90,SE,135,0.0,-999.0,98,-99.99,,,0.00,Acu-Link.com,2013-09-29 10:35:00,
2013-09-29 05:50:00,48.7,48.2,29.90,SSE,157,0.0,-999.0,98,-99.99,,,0.00,Acu-Link.com,2013-09-29 10:50:00,
2013-09-29 06:05:00,48.6,48.1,29.90,South,180,0.0,-999.0,98,-99.99,,,0.00,Acu-Link.com,2013-09-29 11:05:00,
2013-09-29 06:21:00,48.4,47.9,29.90,West,270,0.0,-999.0,98,-99.99,,,0.00,Acu-Link.com,2013-09-29 11:21:00,
2013-09-29 06:36:00,48.0,47.5,29.90,SSE,157,0.0,-999.0,98,-99.99,,,0.00,Acu-Link.com,2013-09-29 11:36:00,
2013-09-29 07:07:00,47.3,46.8,29.91,ESE,112,0.0,-999.0,98,-99.99,,,0.00,Acu-Link.com,2013-09-29 12:07:00,
2013-09-29 07:23:00,46.9,46.4,29.92,ESE,112,0.0,-999.0,98,-99.99,,,0.00,Acu-Link.com,2013-09-29 12:23:00,
2013-09-29 07:38:00,46.4,45.9,29.93,SSE,157,0.0,-999.0,98,-99.99,,,0.00,Acu-Link.com,2013-09-29 12:38:00,
2013-09-29 07:53:00,47.8,47.3,29.94,ESE,112,0.0,-999.0,98,-99.99,,,0.00,Acu-Link.com,2013-09-29 12:53:00,
2013-09-29 08:08:00,48.7,48.2,29.94,South,180,0.0,-999.0,98,-99.99,,,0.01,Acu-Link.com,2013-09-29 13:08:00,
2013-09-29 08:24:00,49.8,49.3,29.94,ESE,112,0.0,-999.0,98,-99.99,,,0.01,Acu-Link.com,2013-09-29 13:24:00,
2013-09-29 08:39:00,50.7,50.2,29.95,NNE,22,2.7,-999.0,98,-99.99,,,0.01,Acu-Link.com,2013-09-29 13:39:00,
2013-09-29 08:54:00,52.2,51.1,29.95,ESE,112,2.7,-999.0,96,-99.99,,,0.01,Acu-Link.com,2013-09-29 13:54:00,
2013-09-29 09:09:00,54.0,52.0,29.96,ESE,112,0.0,-999.0,93,-99.99,,,0.01,Acu-Link.com,2013-09-29 14:09:00,
2013-09-29 09:25:00,55.6,53.3,29.95,SE,135,0.0,-999.0,92,-99.99,,,0.01,Acu-Link.com,2013-09-29 14:25:00,
2013-09-29 09:40:00,56.3,52.8,29.96,SE,135,1.7,-999.0,88,-99.99,,,0.01,Acu-Link.com,2013-09-29 14:40:00,
2013-09-29 09:55:00,57.6,53.8,29.96,SSE,157,1.1,-999.0,87,-99.99,,,0.01,Acu-Link.com,2013-09-29 14:55:00,
2013-09-29 10:10:00,58.5,53.4,29.96,East,90,0.0,-999.0,83,-99.99,,,0.01,Acu-Link.com,2013-09-29 15:10:00,
2013-09-29 10:26:00,59.5,53.7,29.95,ESE,112,1.1,-999.0,81,-99.99,,,0.01,Acu-Link.com,2013-09-29 15:26:00,
2013-09-29 10:41:00,60.8,53.2,29.96,ESE,112,1.7,-999.0,76,-99.99,,,0.01,Acu-Link.com,2013-09-29 15:41:00,
2013-09-29 10:56:00,61.5,53.9,29.96,ESE,112,2.2,-999.0,76,-99.99,,,0.01,Acu-Link.com,2013-09-29 15:56:00,
2013-09-29 11:12:00,62.1,51.4,29.96,NW,315,0.0,-999.0,68,-99.99,,,0.01,Acu-Link.com,2013-09-29 16:12:00,
2013-09-29 11:27:00,63.0,51.0,29.96,ESE,112,1.7,-999.0,65,-99.99,,,0.01,Acu-Link.com,2013-09-29 16:27:00,
2013-09-29 11:42:00,63.5,51.1,29.95,North,0,2.2,-999.0,64,-99.99,,,0.01,Acu-Link.com,2013-09-29 16:42:00,
2013-09-29 11:58:00,64.4,51.5,29.95,West,270,3.2,-999.0,63,-99.99,,,0.01,Acu-Link.com,2013-09-29 16:58:00,
2013-09-29 12:14:00,64.8,51.9,29.95,South,180,2.7,-999.0,63,-99.99,,,0.01,Acu-Link.com,2013-09-29 17:14:00,
2013-09-29 12:29:00,66.0,53.0,29.95,South,180,2.2,-999.0,63,-99.99,,,0.01,Acu-Link.com,2013-09-29 17:29:00,
2013-09-29 12:44:00,66.6,54.0,29.95,ESE,112,2.7,-999.0,64,-99.99,,,0.01,Acu-Link.com,2013-09-29 17:44:00,
2013-09-29 12:59:00,67.1,53.2,29.94,ESE,112,3.7,-999.0,61,-99.99,,,0.01,Acu-Link.com,2013-09-29 17:59:00,
2013-09-29 13:15:00,67.8,52.5,29.94,NNE,22,3.2,-999.0,58,-99.99,,,0.01,Acu-Link.com,2013-09-29 18:15:00,
2013-09-29 13:30:00,68.4,54.4,29.93,ESE,112,1.7,-999.0,61,-99.99,,,0.01,Acu-Link.com,2013-09-29 18:30:00,
2013-09-29 13:45:00,68.4,52.1,29.92,West,270,2.2,-999.0,56,-99.99,,,0.01,Acu-Link.com,2013-09-29 18:45:00,
2013-09-29 14:00:00,68.2,51.9,29.92,ENE,67,3.7,-999.0,56,-99.99,,,0.01,Acu-Link.com,2013-09-29 19:00:00,
2013-09-29 14:16:00,69.1,50.2,29.91,NNE,22,1.1,-999.0,51,-99.99,,,0.01,Acu-Link.com,2013-09-29 19:16:00,
2013-09-29 14:31:00,69.6,51.2,29.91,West,270,1.7,-999.0,52,-99.99,,,0.01,Acu-Link.com,2013-09-29 19:31:00,
2013-09-29 14:46:00,69.6,50.7,29.90,SSW,202,2.7,-999.0,51,-99.99,,,0.01,Acu-Link.com,2013-09-29 19:46:00,
2013-09-29 15:02:00,69.6,50.1,29.90,ESE,112,1.1,-999.0,50,-99.99,,,0.02,Acu-Link.com,2013-09-29 20:02:00,
2013-09-29 15:17:00,69.6,52.2,29.90,South,180,1.1,-999.0,54,-99.99,,,0.02,Acu-Link.com,2013-09-29 20:17:00,
2013-09-29 15:32:00,69.8,52.9,29.90,NW,315,2.2,-999.0,55,-99.99,,,0.02,Acu-Link.com,2013-09-29 20:32:00,
2013-09-29 15:47:00,69.4,51.0,29.89,ESE,112,2.7,-999.0,52,-99.99,,,0.02,Acu-Link.com,2013-09-29 20:47:00,
2013-09-29 16:03:00,69.1,50.7,29.90,SE,135,4.2,-999.0,52,-99.99,,,0.02,Acu-Link.com,2013-09-29 21:03:00,
2013-09-29 16:18:00,68.9,51.1,29.89,ESE,112,2.7,-999.0,53,-99.99,,,0.02,Acu-Link.com,2013-09-29 21:18:00,
2013-09-29 16:33:00,68.2,50.4,29.89,ESE,112,1.7,-999.0,53,-99.99,,,0.02,Acu-Link.com,2013-09-29 21:33:00,
2013-09-29 16:48:00,67.8,50.5,29.88,ESE,112,5.8,-999.0,54,-99.99,,,0.02,Acu-Link.com,2013-09-29 21:48:00,
2013-09-29 17:04:00,67.5,50.3,29.89,SW,225,2.2,-999.0,54,-99.99,,,0.02,Acu-Link.com,2013-09-29 22:04:00,
2013-09-29 17:19:00,66.9,50.2,29.89,South,180,2.2,-999.0,55,-99.99,,,0.02,Acu-Link.com,2013-09-29 22:19:00,
2013-09-29 17:34:00,67.3,49.6,29.89,SE,135,2.2,-999.0,53,-99.99,,,0.02,Acu-Link.com,2013-09-29 22:34:00,
2013-09-29 17:50:00,66.0,48.9,29.89,West,270,3.2,-999.0,54,-99.99,,,0.02,Acu-Link.com,2013-09-29 22:50:00,
2013-09-29 18:05:00,64.4,48.4,29.89,ESE,112,1.1,-999.0,56,-99.99,,,0.04,Acu-Link.com,2013-09-29 23:05:00,
2013-09-29 18:20:00,62.6,47.6,29.89,SW,225,1.1,-999.0,58,-99.99,,,0.04,Acu-Link.com,2013-09-29 23:20:00,
2013-09-29 18:35:00,60.8,49.8,29.89,SE,135,3.2,-999.0,67,-99.99,,,0.05,Acu-Link.com,2013-09-29 23:35:00,
2013-09-29 18:50:00,59.0,50.7,29.89,East,90,2.7,-999.0,74,-99.99,,,0.05,Acu-Link.com,2013-09-29 23:50:00,
2013-09-29 19:06:00,57.6,50.8,29.89,SSE,157,4.2,-999.0,78,-99.99,,,0.05,Acu-Link.com,2013-09-30 00:06:00,
2013-09-29 19:21:00,56.5,50.4,29.89,ESE,112,1.1,-999.0,80,-99.99,,,0.05,Acu-Link.com,2013-09-30 00:21:00,
2013-09-29 19:36:00,55.8,50.4,29.89,ESE,112,3.2,-999.0,82,-99.99,,,0.05,Acu-Link.com,2013-09-30 00:36:00,
2013-09-29 19:52:00,55.0,49.9,29.90,SSW,202,1.7,-999.0,83,-99.99,,,0.05,Acu-Link.com,2013-09-30 00:52:00,
2013-09-29 20:07:00,54.7,50.0,29.90,ESE,112,1.7,-999.0,84,-99.99,,,0.05,Acu-Link.com,2013-09-30 01:07:00,
2013-09-29 20:22:00,54.3,49.9,29.90,ESE,112,4.2,-999.0,85,-99.99,,,0.05,Acu-Link.com,2013-09-30 01:22:00,
2013-09-29 20:37:00,54.3,49.9,29.90,South,180,3.2,-999.0,85,-99.99,,,0.05,Acu-Link.com,2013-09-30 01:37:00,
2013-09-29 20:52:00,54.1,49.7,29.90,ESE,112,2.7,-999.0,85,-99.99,,,0.05,Acu-Link.com,2013-09-30 01:52:00,
2013-09-29 21:07:00,53.4,49.0,29.90,ESE,112,1.1,-999.0,85,-99.99,,,0.05,Acu-Link.com,2013-09-30 02:07:00,
2013-09-29 21:23:00,53.2,49.1,29.90,ESE,112,2.2,-999.0,86,-99.99,,,0.05,Acu-Link.com,2013-09-30 02:23:00,
2013-09-29 21:38:00,52.9,48.8,29.91,South,180,0.0,-999.0,86,-99.99,,,0.05,Acu-Link.com,2013-09-30 02:38:00,
2013-09-29 21:53:00,52.5,48.7,29.91,SSE,157,1.7,-999.0,87,-99.99,,,0.05,Acu-Link.com,2013-09-30 02:53:00,
2013-09-29 22:08:00,51.6,47.9,29.91,SSE,157,0.0,-999.0,87,-99.99,,,0.05,Acu-Link.com,2013-09-30 03:08:00,
2013-09-29 22:24:00,50.7,47.0,29.91,SSE,157,0.0,-999.0,87,-99.99,,,0.05,Acu-Link.com,2013-09-30 03:24:00,
2013-09-29 22:39:00,50.2,46.8,29.91,ESE,112,0.0,-999.0,88,-99.99,,,0.05,Acu-Link.com,2013-09-30 03:39:00,
2013-09-29 22:54:00,49.3,45.9,29.90,SE,135,0.0,-999.0,88,-99.99,,,0.05,Acu-Link.com,2013-09-30 03:54:00,
2013-09-29 23:10:00,48.7,45.6,29.91,ESE,112,0.0,-999.0,89,-99.99,,,0.05,Acu-Link.com,2013-09-30 04:10:00,
2013-09-29 23:25:00,48.9,46.4,29.90,East,90,1.1,-999.0,91,-99.99,,,0.05,Acu-Link.com,2013-09-30 04:25:00,
2013-09-29 23:40:00,48.7,46.2,29.91,SW,225,0.0,-999.0,91,-99.99,,,0.05,Acu-Link.com,2013-09-30 04:40:00,
2013-09-29 23:56:00,48.4,45.9,29.91,SSE,157,0.0,-999.0,91,-99.99,,,0.05,Acu-Link.com,2013-09-30 04:56:00,